sensor_id;sensor_type;location;lat;lon;timestamp;P1;durP1;ratioP1;P2;durP2;ratioP2
79702;SDS011;69172;52.352;5.006;2024-01-11T00:01:39;20.35;;;8.20;;
79702;SDS011;69172;52.352;5.006;2024-01-11T00:04:10;17.10;;;8.63;;
79702;SDS011;69172;52.352;5.006;2024-01-11T00:14:26;22.40;;;9.68;;
79702;SDS011;69172;52.352;5.006;2024-01-11T00:16:52;21.13;;;9.20;;
79702;SDS011;69172;52.352;5.006;2024-01-11T00:19:17;21.33;;;9.20;;
79702;SDS011;69172;52.352;5.006;2024-01-11T00:21:42;23.40;;;8.90;;
79702;SDS011;69172;52.352;5.006;2024-01-11T00:24:09;19.52;;;9.10;;
79702;SDS011;69172;52.352;5.006;2024-01-11T00:26:34;16.83;;;7.82;;
79702;SDS011;69172;52.352;5.006;2024-01-11T00:28:59;23.15;;;8.93;;
79702;SDS011;69172;52.352;5.006;2024-01-11T00:31:25;22.98;;;9.45;;
79702;SDS011;69172;52.352;5.006;2024-01-11T00:33:51;20.40;;;8.45;;
79702;SDS011;69172;52.352;5.006;2024-01-11T00:36:17;24.17;;;9.50;;
79702;SDS011;69172;52.352;5.006;2024-01-11T00:38:45;21.20;;;10.02;;
79702;SDS011;69172;52.352;5.006;2024-01-11T00:41:10;23.33;;;10.10;;
79702;SDS011;69172;52.352;5.006;2024-01-11T00:43:36;24.83;;;9.85;;
79702;SDS011;69172;52.352;5.006;2024-01-11T00:46:01;23.27;;;9.90;;
79702;SDS011;69172;52.352;5.006;2024-01-11T00:48:26;21.95;;;10.23;;
79702;SDS011;69172;52.352;5.006;2024-01-11T00:50:52;22.48;;;9.05;;
79702;SDS011;69172;52.352;5.006;2024-01-11T00:53:17;22.95;;;9.88;;
79702;SDS011;69172;52.352;5.006;2024-01-11T00:55:43;25.98;;;10.60;;
79702;SDS011;69172;52.352;5.006;2024-01-11T00:58:08;20.33;;;10.23;;
79702;SDS011;69172;52.352;5.006;2024-01-11T01:00:33;20.05;;;9.85;;
79702;SDS011;69172;52.352;5.006;2024-01-11T01:02:59;23.60;;;9.20;;
79702;SDS011;69172;52.352;5.006;2024-01-11T01:05:25;22.30;;;9.82;;
79702;SDS011;69172;52.352;5.006;2024-01-11T01:07:50;25.00;;;10.52;;
79702;SDS011;69172;52.352;5.006;2024-01-11T01:10:16;23.42;;;11.90;;
79702;SDS011;69172;52.352;5.006;2024-01-11T01:12:41;24.92;;;10.00;;
79702;SDS011;69172;52.352;5.006;2024-01-11T01:15:07;27.98;;;11.00;;
79702;SDS011;69172;52.352;5.006;2024-01-11T01:17:32;22.60;;;10.88;;
79702;SDS011;69172;52.352;5.006;2024-01-11T01:19:58;22.60;;;9.85;;
79702;SDS011;69172;52.352;5.006;2024-01-11T01:22:23;20.98;;;9.77;;
79702;SDS011;69172;52.352;5.006;2024-01-11T01:24:49;25.80;;;11.25;;
79702;SDS011;69172;52.352;5.006;2024-01-11T01:27:17;22.33;;;10.70;;
79702;SDS011;69172;52.352;5.006;2024-01-11T01:29:42;24.48;;;10.48;;
79702;SDS011;69172;52.352;5.006;2024-01-11T01:32:08;25.08;;;9.35;;
79702;SDS011;69172;52.352;5.006;2024-01-11T01:34:33;23.30;;;9.88;;
79702;SDS011;69172;52.352;5.006;2024-01-11T01:36:59;25.55;;;10.90;;
79702;SDS011;69172;52.352;5.006;2024-01-11T01:39:24;25.27;;;11.15;;
79702;SDS011;69172;52.352;5.006;2024-01-11T01:41:49;27.13;;;11.27;;
79702;SDS011;69172;52.352;5.006;2024-01-11T01:44:15;26.95;;;11.55;;
79702;SDS011;69172;52.352;5.006;2024-01-11T01:46:40;28.63;;;12.80;;
79702;SDS011;69172;52.352;5.006;2024-01-11T01:49:06;31.58;;;13.95;;
79702;SDS011;69172;52.352;5.006;2024-01-11T01:51:31;26.30;;;11.63;;
79702;SDS011;69172;52.352;5.006;2024-01-11T01:53:57;29.63;;;13.35;;
79702;SDS011;69172;52.352;5.006;2024-01-11T01:56:25;30.45;;;12.18;;
79702;SDS011;69172;52.352;5.006;2024-01-11T01:58:51;25.95;;;12.27;;
79702;SDS011;69172;52.352;5.006;2024-01-11T02:01:18;26.83;;;11.63;;
79702;SDS011;69172;52.352;5.006;2024-01-11T02:03:45;26.40;;;12.02;;
79702;SDS011;69172;52.352;5.006;2024-01-11T02:06:11;25.63;;;12.32;;
79702;SDS011;69172;52.352;5.006;2024-01-11T02:08:38;26.63;;;13.13;;
79702;SDS011;69172;52.352;5.006;2024-01-11T02:11:08;30.40;;;13.13;;
79702;SDS011;69172;52.352;5.006;2024-01-11T02:13:34;26.35;;;12.70;;
79702;SDS011;69172;52.352;5.006;2024-01-11T02:16:00;29.70;;;14.15;;
79702;SDS011;69172;52.352;5.006;2024-01-11T02:18:25;29.33;;;13.50;;
79702;SDS011;69172;52.352;5.006;2024-01-11T02:20:50;24.52;;;12.55;;
79702;SDS011;69172;52.352;5.006;2024-01-11T02:23:17;28.77;;;13.23;;
79702;SDS011;69172;52.352;5.006;2024-01-11T02:25:44;29.58;;;13.70;;
79702;SDS011;69172;52.352;5.006;2024-01-11T02:28:16;26.05;;;12.10;;
79702;SDS011;69172;52.352;5.006;2024-01-11T02:30:41;30.35;;;13.45;;
79702;SDS011;69172;52.352;5.006;2024-01-11T02:33:09;29.20;;;13.68;;
79702;SDS011;69172;52.352;5.006;2024-01-11T02:35:37;29.63;;;14.63;;
79702;SDS011;69172;52.352;5.006;2024-01-11T02:38:04;33.33;;;15.13;;
79702;SDS011;69172;52.352;5.006;2024-01-11T02:40:31;28.85;;;15.32;;
79702;SDS011;69172;52.352;5.006;2024-01-11T02:42:57;31.23;;;14.18;;
79702;SDS011;69172;52.352;5.006;2024-01-11T02:45:24;34.15;;;16.02;;
79702;SDS011;69172;52.352;5.006;2024-01-11T02:47:50;33.22;;;15.45;;
79702;SDS011;69172;52.352;5.006;2024-01-11T02:50:15;34.55;;;14.35;;
79702;SDS011;69172;52.352;5.006;2024-01-11T02:52:40;30.95;;;14.32;;
79702;SDS011;69172;52.352;5.006;2024-01-11T02:55:06;30.52;;;14.10;;
79702;SDS011;69172;52.352;5.006;2024-01-11T02:57:32;31.17;;;14.90;;
79702;SDS011;69172;52.352;5.006;2024-01-11T02:59:58;31.30;;;15.50;;
79702;SDS011;69172;52.352;5.006;2024-01-11T03:02:23;30.33;;;14.43;;
79702;SDS011;69172;52.352;5.006;2024-01-11T03:04:50;31.92;;;15.05;;
79702;SDS011;69172;52.352;5.006;2024-01-11T03:07:15;32.25;;;15.48;;
79702;SDS011;69172;52.352;5.006;2024-01-11T03:09:40;30.23;;;15.68;;
79702;SDS011;69172;52.352;5.006;2024-01-11T03:12:07;33.63;;;14.80;;
79702;SDS011;69172;52.352;5.006;2024-01-11T03:14:32;32.30;;;15.27;;
79702;SDS011;69172;52.352;5.006;2024-01-11T03:16:58;35.08;;;16.15;;
79702;SDS011;69172;52.352;5.006;2024-01-11T03:19:24;38.23;;;16.03;;
79702;SDS011;69172;52.352;5.006;2024-01-11T03:21:49;35.03;;;16.23;;
79702;SDS011;69172;52.352;5.006;2024-01-11T03:24:15;36.47;;;16.95;;
79702;SDS011;69172;52.352;5.006;2024-01-11T03:26:41;34.10;;;16.17;;
79702;SDS011;69172;52.352;5.006;2024-01-11T03:29:07;32.53;;;16.35;;
79702;SDS011;69172;52.352;5.006;2024-01-11T03:31:32;39.00;;;17.63;;
79702;SDS011;69172;52.352;5.006;2024-01-11T03:33:59;35.08;;;17.13;;
79702;SDS011;69172;52.352;5.006;2024-01-11T03:36:24;37.35;;;17.42;;
79702;SDS011;69172;52.352;5.006;2024-01-11T03:38:50;33.78;;;17.90;;
79702;SDS011;69172;52.352;5.006;2024-01-11T03:41:15;33.03;;;16.23;;
79702;SDS011;69172;52.352;5.006;2024-01-11T03:43:41;38.70;;;18.70;;
79702;SDS011;69172;52.352;5.006;2024-01-11T03:46:06;37.38;;;16.58;;
79702;SDS011;69172;52.352;5.006;2024-01-11T03:48:31;39.13;;;18.65;;
79702;SDS011;69172;52.352;5.006;2024-01-11T03:50:57;39.92;;;18.67;;
79702;SDS011;69172;52.352;5.006;2024-01-11T03:53:22;36.40;;;17.70;;
79702;SDS011;69172;52.352;5.006;2024-01-11T03:55:48;34.83;;;17.25;;
79702;SDS011;69172;52.352;5.006;2024-01-11T03:58:14;34.78;;;16.35;;
79702;SDS011;69172;52.352;5.006;2024-01-11T04:00:41;38.60;;;17.95;;
79702;SDS011;69172;52.352;5.006;2024-01-11T04:03:06;36.33;;;18.08;;
79702;SDS011;69172;52.352;5.006;2024-01-11T04:05:32;34.97;;;16.48;;
79702;SDS011;69172;52.352;5.006;2024-01-11T04:07:58;39.05;;;18.38;;
79702;SDS011;69172;52.352;5.006;2024-01-11T04:10:23;36.40;;;17.25;;
79702;SDS011;69172;52.352;5.006;2024-01-11T04:12:49;39.97;;;18.65;;
79702;SDS011;69172;52.352;5.006;2024-01-11T04:15:15;39.58;;;18.85;;
79702;SDS011;69172;52.352;5.006;2024-01-11T04:17:41;47.05;;;22.15;;
79702;SDS011;69172;52.352;5.006;2024-01-11T04:20:08;48.10;;;22.63;;
79702;SDS011;69172;52.352;5.006;2024-01-11T04:22:34;45.05;;;20.80;;
79702;SDS011;69172;52.352;5.006;2024-01-11T04:25:00;48.55;;;21.58;;
79702;SDS011;69172;52.352;5.006;2024-01-11T04:27:31;49.50;;;21.75;;
79702;SDS011;69172;52.352;5.006;2024-01-11T04:29:56;48.50;;;22.80;;
79702;SDS011;69172;52.352;5.006;2024-01-11T04:32:22;53.85;;;23.70;;
79702;SDS011;69172;52.352;5.006;2024-01-11T04:34:47;48.10;;;22.67;;
79702;SDS011;69172;52.352;5.006;2024-01-11T04:37:14;48.88;;;22.13;;
79702;SDS011;69172;52.352;5.006;2024-01-11T04:39:41;51.40;;;24.05;;
79702;SDS011;69172;52.352;5.006;2024-01-11T04:42:08;48.28;;;23.02;;
79702;SDS011;69172;52.352;5.006;2024-01-11T04:44:33;49.03;;;21.92;;
79702;SDS011;69172;52.352;5.006;2024-01-11T04:47:00;44.22;;;21.90;;
79702;SDS011;69172;52.352;5.006;2024-01-11T04:49:27;54.88;;;23.67;;
79702;SDS011;69172;52.352;5.006;2024-01-11T04:51:59;45.95;;;20.58;;
79702;SDS011;69172;52.352;5.006;2024-01-11T04:54:25;43.92;;;21.48;;
79702;SDS011;69172;52.352;5.006;2024-01-11T04:56:50;45.42;;;20.95;;
79702;SDS011;69172;52.352;5.006;2024-01-11T04:59:22;49.50;;;22.20;;
79702;SDS011;69172;52.352;5.006;2024-01-11T05:01:48;45.35;;;20.35;;
79702;SDS011;69172;52.352;5.006;2024-01-11T05:04:19;45.33;;;20.92;;
79702;SDS011;69172;52.352;5.006;2024-01-11T05:06:45;49.40;;;22.58;;
79702;SDS011;69172;52.352;5.006;2024-01-11T05:09:10;43.00;;;19.75;;
79702;SDS011;69172;52.352;5.006;2024-01-11T05:11:36;47.63;;;21.73;;
79702;SDS011;69172;52.352;5.006;2024-01-11T05:14:02;43.22;;;20.48;;
79702;SDS011;69172;52.352;5.006;2024-01-11T05:16:29;45.00;;;19.85;;
79702;SDS011;69172;52.352;5.006;2024-01-11T05:18:55;45.72;;;20.65;;
79702;SDS011;69172;52.352;5.006;2024-01-11T05:21:23;44.70;;;20.00;;
79702;SDS011;69172;52.352;5.006;2024-01-11T05:23:49;40.03;;;19.92;;
79702;SDS011;69172;52.352;5.006;2024-01-11T05:26:16;46.08;;;23.10;;
79702;SDS011;69172;52.352;5.006;2024-01-11T05:28:42;44.15;;;21.90;;
79702;SDS011;69172;52.352;5.006;2024-01-11T05:31:08;45.25;;;20.90;;
79702;SDS011;69172;52.352;5.006;2024-01-11T05:33:38;43.50;;;20.20;;
79702;SDS011;69172;52.352;5.006;2024-01-11T05:36:04;49.08;;;19.65;;
79702;SDS011;69172;52.352;5.006;2024-01-11T05:38:30;44.72;;;20.17;;
79702;SDS011;69172;52.352;5.006;2024-01-11T05:40:56;39.47;;;20.13;;
79702;SDS011;69172;52.352;5.006;2024-01-11T05:43:22;47.97;;;19.60;;
79702;SDS011;69172;52.352;5.006;2024-01-11T05:45:48;47.97;;;21.20;;
79702;SDS011;69172;52.352;5.006;2024-01-11T05:48:15;44.13;;;21.38;;
79702;SDS011;69172;52.352;5.006;2024-01-11T05:50:41;49.92;;;23.88;;
79702;SDS011;69172;52.352;5.006;2024-01-11T05:53:07;42.55;;;20.60;;
79702;SDS011;69172;52.352;5.006;2024-01-11T05:55:35;44.97;;;21.85;;
79702;SDS011;69172;52.352;5.006;2024-01-11T05:58:00;47.22;;;21.48;;
79702;SDS011;69172;52.352;5.006;2024-01-11T06:00:26;44.22;;;20.55;;
79702;SDS011;69172;52.352;5.006;2024-01-11T06:02:51;46.45;;;19.33;;
79702;SDS011;69172;52.352;5.006;2024-01-11T06:05:18;41.03;;;20.27;;
79702;SDS011;69172;52.352;5.006;2024-01-11T06:07:44;40.35;;;19.20;;
79702;SDS011;69172;52.352;5.006;2024-01-11T06:10:09;46.88;;;18.65;;
79702;SDS011;69172;52.352;5.006;2024-01-11T06:12:35;47.25;;;20.83;;
79702;SDS011;69172;52.352;5.006;2024-01-11T06:15:01;45.05;;;21.90;;
79702;SDS011;69172;52.352;5.006;2024-01-11T06:17:27;42.85;;;20.70;;
79702;SDS011;69172;52.352;5.006;2024-01-11T06:19:52;42.90;;;20.90;;
79702;SDS011;69172;52.352;5.006;2024-01-11T06:22:18;42.50;;;20.08;;
79702;SDS011;69172;52.352;5.006;2024-01-11T06:24:43;41.42;;;20.20;;
79702;SDS011;69172;52.352;5.006;2024-01-11T06:27:09;40.75;;;19.38;;
79702;SDS011;69172;52.352;5.006;2024-01-11T06:29:34;40.80;;;19.02;;
79702;SDS011;69172;52.352;5.006;2024-01-11T06:32:00;40.85;;;19.92;;
79702;SDS011;69172;52.352;5.006;2024-01-11T06:34:25;49.22;;;20.33;;
79702;SDS011;69172;52.352;5.006;2024-01-11T06:36:51;42.40;;;19.67;;
79702;SDS011;69172;52.352;5.006;2024-01-11T06:39:16;43.88;;;20.20;;
79702;SDS011;69172;52.352;5.006;2024-01-11T06:41:42;42.47;;;20.33;;
79702;SDS011;69172;52.352;5.006;2024-01-11T06:44:07;43.28;;;18.38;;
79702;SDS011;69172;52.352;5.006;2024-01-11T06:46:34;45.92;;;21.20;;
79702;SDS011;69172;52.352;5.006;2024-01-11T06:49:01;45.45;;;19.77;;
79702;SDS011;69172;52.352;5.006;2024-01-11T06:51:26;46.67;;;22.77;;
79702;SDS011;69172;52.352;5.006;2024-01-11T06:53:53;45.95;;;21.13;;
79702;SDS011;69172;52.352;5.006;2024-01-11T06:56:20;43.53;;;21.02;;
79702;SDS011;69172;52.352;5.006;2024-01-11T06:58:49;44.83;;;20.67;;
79702;SDS011;69172;52.352;5.006;2024-01-11T07:01:15;39.90;;;17.95;;
79702;SDS011;69172;52.352;5.006;2024-01-11T07:03:40;38.50;;;18.70;;
79702;SDS011;69172;52.352;5.006;2024-01-11T07:06:06;33.95;;;16.67;;
79702;SDS011;69172;52.352;5.006;2024-01-11T07:08:32;32.08;;;13.15;;
79702;SDS011;69172;52.352;5.006;2024-01-11T07:10:58;31.60;;;14.50;;
79702;SDS011;69172;52.352;5.006;2024-01-11T07:13:24;33.83;;;14.70;;
79702;SDS011;69172;52.352;5.006;2024-01-11T07:15:50;30.47;;;15.10;;
79702;SDS011;69172;52.352;5.006;2024-01-11T07:18:17;32.50;;;14.50;;
79702;SDS011;69172;52.352;5.006;2024-01-11T07:20:42;34.92;;;15.20;;
79702;SDS011;69172;52.352;5.006;2024-01-11T07:23:08;31.38;;;13.05;;
79702;SDS011;69172;52.352;5.006;2024-01-11T07:25:34;27.85;;;13.30;;
79702;SDS011;69172;52.352;5.006;2024-01-11T07:27:59;30.73;;;13.52;;
79702;SDS011;69172;52.352;5.006;2024-01-11T07:30:25;32.85;;;13.77;;
79702;SDS011;69172;52.352;5.006;2024-01-11T07:32:50;30.95;;;14.00;;
79702;SDS011;69172;52.352;5.006;2024-01-11T07:35:16;28.17;;;13.80;;
79702;SDS011;69172;52.352;5.006;2024-01-11T07:37:42;29.80;;;14.77;;
79702;SDS011;69172;52.352;5.006;2024-01-11T07:40:07;29.73;;;13.85;;
79702;SDS011;69172;52.352;5.006;2024-01-11T07:42:36;30.75;;;15.35;;
79702;SDS011;69172;52.352;5.006;2024-01-11T07:45:03;35.67;;;15.90;;
79702;SDS011;69172;52.352;5.006;2024-01-11T07:47:30;34.03;;;15.90;;
79702;SDS011;69172;52.352;5.006;2024-01-11T07:49:55;36.15;;;16.63;;
79702;SDS011;69172;52.352;5.006;2024-01-11T07:52:20;33.60;;;15.30;;
79702;SDS011;69172;52.352;5.006;2024-01-11T07:54:46;38.55;;;16.83;;
79702;SDS011;69172;52.352;5.006;2024-01-11T07:57:13;30.95;;;15.63;;
79702;SDS011;69172;52.352;5.006;2024-01-11T07:59:39;28.15;;;12.80;;
79702;SDS011;69172;52.352;5.006;2024-01-11T08:02:04;32.70;;;14.68;;
79702;SDS011;69172;52.352;5.006;2024-01-11T08:04:32;32.22;;;15.38;;
79702;SDS011;69172;52.352;5.006;2024-01-11T08:06:57;30.63;;;14.23;;
79702;SDS011;69172;52.352;5.006;2024-01-11T08:09:26;31.85;;;15.10;;
79702;SDS011;69172;52.352;5.006;2024-01-11T08:11:52;29.50;;;13.88;;
79702;SDS011;69172;52.352;5.006;2024-01-11T08:14:19;27.48;;;14.15;;
79702;SDS011;69172;52.352;5.006;2024-01-11T08:16:45;29.27;;;13.00;;
79702;SDS011;69172;52.352;5.006;2024-01-11T08:19:10;27.10;;;12.90;;
79702;SDS011;69172;52.352;5.006;2024-01-11T08:21:35;29.23;;;12.65;;
79702;SDS011;69172;52.352;5.006;2024-01-11T08:24:02;28.48;;;12.85;;
79702;SDS011;69172;52.352;5.006;2024-01-11T08:26:28;32.05;;;13.15;;
79702;SDS011;69172;52.352;5.006;2024-01-11T08:28:55;22.63;;;11.40;;
79702;SDS011;69172;52.352;5.006;2024-01-11T08:31:20;26.40;;;12.27;;
79702;SDS011;69172;52.352;5.006;2024-01-11T08:33:46;24.00;;;11.00;;
79702;SDS011;69172;52.352;5.006;2024-01-11T08:36:11;26.85;;;12.77;;
79702;SDS011;69172;52.352;5.006;2024-01-11T08:38:38;26.08;;;12.05;;
79702;SDS011;69172;52.352;5.006;2024-01-11T08:41:04;21.60;;;10.63;;
79702;SDS011;69172;52.352;5.006;2024-01-11T08:43:29;22.52;;;11.35;;
79702;SDS011;69172;52.352;5.006;2024-01-11T08:45:55;26.38;;;11.88;;
79702;SDS011;69172;52.352;5.006;2024-01-11T08:48:20;27.80;;;12.48;;
79702;SDS011;69172;52.352;5.006;2024-01-11T08:50:47;23.42;;;12.63;;
79702;SDS011;69172;52.352;5.006;2024-01-11T08:53:13;26.80;;;11.15;;
79702;SDS011;69172;52.352;5.006;2024-01-11T08:55:40;25.25;;;11.70;;
79702;SDS011;69172;52.352;5.006;2024-01-11T08:58:07;23.27;;;11.52;;
79702;SDS011;69172;52.352;5.006;2024-01-11T09:00:32;26.10;;;13.13;;
79702;SDS011;69172;52.352;5.006;2024-01-11T09:02:58;31.50;;;15.52;;
79702;SDS011;69172;52.352;5.006;2024-01-11T09:05:24;34.88;;;16.95;;
79702;SDS011;69172;52.352;5.006;2024-01-11T09:07:50;36.33;;;16.25;;
79702;SDS011;69172;52.352;5.006;2024-01-11T09:10:16;27.63;;;13.00;;
79702;SDS011;69172;52.352;5.006;2024-01-11T09:12:41;23.52;;;12.00;;
79702;SDS011;69172;52.352;5.006;2024-01-11T09:15:07;22.00;;;11.52;;
79702;SDS011;69172;52.352;5.006;2024-01-11T09:17:32;26.17;;;11.00;;
79702;SDS011;69172;52.352;5.006;2024-01-11T09:19:58;23.27;;;11.50;;
79702;SDS011;69172;52.352;5.006;2024-01-11T09:22:23;21.92;;;11.10;;
79702;SDS011;69172;52.352;5.006;2024-01-11T09:24:50;24.02;;;10.95;;
79702;SDS011;69172;52.352;5.006;2024-01-11T09:27:16;25.35;;;11.30;;
79702;SDS011;69172;52.352;5.006;2024-01-11T09:29:47;24.52;;;11.18;;
79702;SDS011;69172;52.352;5.006;2024-01-11T09:34:38;22.90;;;10.50;;
79702;SDS011;69172;52.352;5.006;2024-01-11T09:37:03;22.67;;;10.60;;
79702;SDS011;69172;52.352;5.006;2024-01-11T09:39:29;23.08;;;11.50;;
79702;SDS011;69172;52.352;5.006;2024-01-11T09:42:02;22.17;;;10.80;;
79702;SDS011;69172;52.352;5.006;2024-01-11T09:44:34;25.60;;;10.60;;
79702;SDS011;69172;52.352;5.006;2024-01-11T09:47:01;25.63;;;12.27;;
79702;SDS011;69172;52.352;5.006;2024-01-11T09:49:27;23.05;;;12.13;;
79702;SDS011;69172;52.352;5.006;2024-01-11T09:51:55;22.50;;;12.27;;
79702;SDS011;69172;52.352;5.006;2024-01-11T09:54:22;24.85;;;11.63;;
79702;SDS011;69172;52.352;5.006;2024-01-11T09:56:50;24.50;;;11.82;;
79702;SDS011;69172;52.352;5.006;2024-01-11T09:59:18;24.35;;;11.27;;
79702;SDS011;69172;52.352;5.006;2024-01-11T10:01:45;24.33;;;11.80;;
79702;SDS011;69172;52.352;5.006;2024-01-11T10:04:11;30.50;;;15.57;;
79702;SDS011;69172;52.352;5.006;2024-01-11T10:06:38;29.13;;;15.00;;
79702;SDS011;69172;52.352;5.006;2024-01-11T10:09:03;31.88;;;13.90;;
79702;SDS011;69172;52.352;5.006;2024-01-11T10:11:29;32.58;;;16.42;;
79702;SDS011;69172;52.352;5.006;2024-01-11T10:13:57;29.50;;;14.65;;
79702;SDS011;69172;52.352;5.006;2024-01-11T10:16:23;29.02;;;14.20;;
79702;SDS011;69172;52.352;5.006;2024-01-11T10:18:49;26.75;;;14.63;;
79702;SDS011;69172;52.352;5.006;2024-01-11T10:21:18;30.25;;;13.80;;
79702;SDS011;69172;52.352;5.006;2024-01-11T10:23:44;29.35;;;13.82;;
79702;SDS011;69172;52.352;5.006;2024-01-11T10:26:09;35.08;;;15.55;;
79702;SDS011;69172;52.352;5.006;2024-01-11T10:28:34;32.17;;;15.88;;
79702;SDS011;69172;52.352;5.006;2024-01-11T10:31:03;31.33;;;16.35;;
79702;SDS011;69172;52.352;5.006;2024-01-11T10:33:33;27.60;;;14.73;;
79702;SDS011;69172;52.352;5.006;2024-01-11T10:35:59;28.00;;;13.95;;
79702;SDS011;69172;52.352;5.006;2024-01-11T10:38:26;28.40;;;14.27;;
79702;SDS011;69172;52.352;5.006;2024-01-11T10:40:55;28.85;;;14.18;;
79702;SDS011;69172;52.352;5.006;2024-01-11T10:43:24;28.98;;;13.85;;
79702;SDS011;69172;52.352;5.006;2024-01-11T10:45:51;29.70;;;14.45;;
79702;SDS011;69172;52.352;5.006;2024-01-11T10:48:22;31.70;;;16.60;;
79702;SDS011;69172;52.352;5.006;2024-01-11T10:50:59;28.60;;;15.05;;
79702;SDS011;69172;52.352;5.006;2024-01-11T10:56:09;33.75;;;16.15;;
79702;SDS011;69172;52.352;5.006;2024-01-11T10:58:35;29.63;;;15.60;;
79702;SDS011;69172;52.352;5.006;2024-01-11T11:01:01;32.08;;;16.38;;
79702;SDS011;69172;52.352;5.006;2024-01-11T11:03:28;31.50;;;14.98;;
79702;SDS011;69172;52.352;5.006;2024-01-11T11:05:56;30.67;;;15.60;;
79702;SDS011;69172;52.352;5.006;2024-01-11T11:08:24;29.15;;;15.23;;
79702;SDS011;69172;52.352;5.006;2024-01-11T11:10:55;29.42;;;15.93;;
79702;SDS011;69172;52.352;5.006;2024-01-11T11:13:25;27.65;;;13.85;;
79702;SDS011;69172;52.352;5.006;2024-01-11T11:15:54;29.77;;;15.07;;
79702;SDS011;69172;52.352;5.006;2024-01-11T11:18:22;28.63;;;13.57;;
79702;SDS011;69172;52.352;5.006;2024-01-11T11:20:49;29.25;;;14.15;;
79702;SDS011;69172;52.352;5.006;2024-01-11T11:23:16;25.02;;;13.07;;
79702;SDS011;69172;52.352;5.006;2024-01-11T11:25:43;24.42;;;11.90;;
79702;SDS011;69172;52.352;5.006;2024-01-11T11:28:16;23.10;;;12.27;;
79702;SDS011;69172;52.352;5.006;2024-01-11T11:30:43;25.00;;;11.52;;
79702;SDS011;69172;52.352;5.006;2024-01-11T11:33:19;24.58;;;11.93;;
79702;SDS011;69172;52.352;5.006;2024-01-11T11:35:47;23.70;;;12.05;;
79702;SDS011;69172;52.352;5.006;2024-01-11T11:38:17;25.40;;;12.75;;
79702;SDS011;69172;52.352;5.006;2024-01-11T11:40:44;24.23;;;11.55;;
79702;SDS011;69172;52.352;5.006;2024-01-11T11:43:13;23.88;;;11.50;;
79702;SDS011;69172;52.352;5.006;2024-01-11T11:45:41;21.40;;;11.20;;
79702;SDS011;69172;52.352;5.006;2024-01-11T11:53:34;23.25;;;11.50;;
79702;SDS011;69172;52.352;5.006;2024-01-11T11:56:00;25.58;;;12.15;;
79702;SDS011;69172;52.352;5.006;2024-01-11T11:58:27;22.10;;;11.60;;
79702;SDS011;69172;52.352;5.006;2024-01-11T12:00:53;23.10;;;11.38;;
79702;SDS011;69172;52.352;5.006;2024-01-11T12:03:28;22.45;;;11.15;;
79702;SDS011;69172;52.352;5.006;2024-01-11T12:05:56;22.02;;;11.07;;
79702;SDS011;69172;52.352;5.006;2024-01-11T12:08:22;20.10;;;10.32;;
79702;SDS011;69172;52.352;5.006;2024-01-11T12:10:48;20.40;;;10.27;;
79702;SDS011;69172;52.352;5.006;2024-01-11T12:13:13;21.08;;;11.38;;
79702;SDS011;69172;52.352;5.006;2024-01-11T12:15:46;18.75;;;9.70;;
79702;SDS011;69172;52.352;5.006;2024-01-11T12:18:12;22.45;;;11.60;;
79702;SDS011;69172;52.352;5.006;2024-01-11T12:20:37;19.90;;;9.13;;
79702;SDS011;69172;52.352;5.006;2024-01-11T12:23:03;19.42;;;9.73;;
79702;SDS011;69172;52.352;5.006;2024-01-11T12:25:30;21.48;;;10.70;;
79702;SDS011;69172;52.352;5.006;2024-01-11T12:28:02;19.92;;;9.73;;
79702;SDS011;69172;52.352;5.006;2024-01-11T12:31:23;19.13;;;8.45;;
79702;SDS011;69172;52.352;5.006;2024-01-11T12:33:49;21.67;;;8.95;;
79702;SDS011;69172;52.352;5.006;2024-01-11T12:36:15;18.02;;;8.25;;
79702;SDS011;69172;52.352;5.006;2024-01-11T12:38:46;18.63;;;8.65;;
79702;SDS011;69172;52.352;5.006;2024-01-11T12:41:13;16.45;;;8.50;;
79702;SDS011;69172;52.352;5.006;2024-01-11T12:43:38;17.98;;;8.63;;
79702;SDS011;69172;52.352;5.006;2024-01-11T12:52:35;16.63;;;8.40;;
79702;SDS011;69172;52.352;5.006;2024-01-11T12:55:01;17.85;;;8.68;;
79702;SDS011;69172;52.352;5.006;2024-01-11T12:57:26;17.88;;;8.63;;
79702;SDS011;69172;52.352;5.006;2024-01-11T12:59:52;18.08;;;7.78;;
79702;SDS011;69172;52.352;5.006;2024-01-11T13:02:19;18.38;;;9.50;;
79702;SDS011;69172;52.352;5.006;2024-01-11T13:04:45;19.52;;;8.80;;
79702;SDS011;69172;52.352;5.006;2024-01-11T13:07:13;17.10;;;8.35;;
79702;SDS011;69172;52.352;5.006;2024-01-11T13:09:40;20.02;;;8.98;;
79702;SDS011;69172;52.352;5.006;2024-01-11T13:12:07;18.73;;;7.85;;
79702;SDS011;69172;52.352;5.006;2024-01-11T13:14:33;19.30;;;9.77;;
79702;SDS011;69172;52.352;5.006;2024-01-11T13:16:59;17.38;;;8.48;;
79702;SDS011;69172;52.352;5.006;2024-01-11T15:15:18;24.85;;;12.38;;
79702;SDS011;69172;52.352;5.006;2024-01-11T15:17:44;24.67;;;12.70;;
79702;SDS011;69172;52.352;5.006;2024-01-11T15:20:10;24.63;;;12.88;;
79702;SDS011;69172;52.352;5.006;2024-01-11T15:22:36;28.05;;;13.32;;
79702;SDS011;69172;52.352;5.006;2024-01-11T15:25:01;26.70;;;13.30;;
79702;SDS011;69172;52.352;5.006;2024-01-11T15:27:26;28.17;;;13.57;;
79702;SDS011;69172;52.352;5.006;2024-01-11T15:29:52;28.00;;;13.40;;
79702;SDS011;69172;52.352;5.006;2024-01-11T15:32:17;24.90;;;12.63;;
79702;SDS011;69172;52.352;5.006;2024-01-11T15:34:43;25.92;;;12.70;;
79702;SDS011;69172;52.352;5.006;2024-01-11T15:37:08;29.05;;;14.27;;
79702;SDS011;69172;52.352;5.006;2024-01-11T15:39:33;26.40;;;13.45;;
79702;SDS011;69172;52.352;5.006;2024-01-11T15:42:00;29.77;;;14.77;;
79702;SDS011;69172;52.352;5.006;2024-01-11T15:44:29;24.98;;;13.13;;
79702;SDS011;69172;52.352;5.006;2024-01-11T15:46:56;25.02;;;12.80;;
79702;SDS011;69172;52.352;5.006;2024-01-11T15:49:22;26.33;;;12.82;;
79702;SDS011;69172;52.352;5.006;2024-01-11T15:51:47;24.73;;;12.93;;
79702;SDS011;69172;52.352;5.006;2024-01-11T15:54:13;32.00;;;13.70;;
79702;SDS011;69172;52.352;5.006;2024-01-11T15:56:39;28.63;;;14.60;;
79702;SDS011;69172;52.352;5.006;2024-01-11T15:59:05;27.95;;;13.68;;
79702;SDS011;69172;52.352;5.006;2024-01-11T16:01:32;24.95;;;13.48;;
79702;SDS011;69172;52.352;5.006;2024-01-11T16:04:00;30.20;;;13.45;;
79702;SDS011;69172;52.352;5.006;2024-01-11T16:06:28;24.60;;;13.05;;
79702;SDS011;69172;52.352;5.006;2024-01-11T16:08:53;29.95;;;14.35;;
79702;SDS011;69172;52.352;5.006;2024-01-11T16:11:19;28.95;;;15.57;;
79702;SDS011;69172;52.352;5.006;2024-01-11T16:13:44;25.17;;;13.95;;
79702;SDS011;69172;52.352;5.006;2024-01-11T16:16:11;33.47;;;13.93;;
79702;SDS011;69172;52.352;5.006;2024-01-11T16:18:37;31.42;;;14.32;;
79702;SDS011;69172;52.352;5.006;2024-01-11T16:21:03;24.40;;;12.48;;
79702;SDS011;69172;52.352;5.006;2024-01-11T16:23:28;26.38;;;13.35;;
79702;SDS011;69172;52.352;5.006;2024-01-11T16:25:54;28.83;;;14.88;;
79702;SDS011;69172;52.352;5.006;2024-01-11T16:28:19;27.85;;;13.35;;
79702;SDS011;69172;52.352;5.006;2024-01-11T16:30:44;27.17;;;13.02;;
79702;SDS011;69172;52.352;5.006;2024-01-11T16:33:11;27.10;;;13.18;;
79702;SDS011;69172;52.352;5.006;2024-01-11T16:35:36;23.52;;;12.43;;
79702;SDS011;69172;52.352;5.006;2024-01-11T16:38:01;30.73;;;14.05;;
79702;SDS011;69172;52.352;5.006;2024-01-11T16:40:28;29.75;;;11.10;;